Time;durP1;ratioP1;P1;durP2;ratioP2;P2;SDS_P1;SDS_P2;PMS_P1;PMS_P2;Temp;Humidity;BMP_temperature;BMP_pressure;BME280_temperature;BME280_humidity;BME280_pressure;Samples;Min_cycle;Max_cycle;Signal;HPM_P1;HPM_P2
2023/01/12 00:01:36;;;;;;;1.48;1.00;;;;;;;5.54;100.00;98157.91;5148789;27;20047;-86
2023/01/12 00:04:03;;;;;;;2.63;1.00;;;;;;;5.12;100.00;98110.19;5155605;27;20043;-87
2023/01/12 00:06:31;;;;;;;2.58;1.00;;;;;;;5.54;100.00;98168.31;5137091;27;20050;-88
2023/01/12 00:08:58;;;;;;;1.90;0.90;;;;;;;4.99;100.00;98091.88;5136656;27;20050;-87
2023/01/12 00:11:25;;;;;;;1.45;1.00;;;;;;;5.28;100.00;98123.94;5138558;27;20499;-87
2023/01/12 00:13:52;;;;;;;1.38;1.00;;;;;;;5.30;100.00;98103.13;5137991;27;20043;-87
2023/01/12 00:16:33;;;;;;;1.40;0.90;;;;;;;5.60;100.00;98160.19;5117914;27;20548;-87
2023/01/12 00:19:03;;;;;;;2.28;0.90;;;;;;;5.38;100.00;98124.25;5151232;27;20051;-86
2023/01/12 00:21:34;;;;;;;0.90;0.80;;;;;;;5.49;100.00;98118.44;5135068;27;20058;-86
2023/01/12 00:24:01;;;;;;;0.93;0.85;;;;;;;5.35;100.00;98102.81;5141133;27;20051;-87
2023/01/12 00:26:28;;;;;;;1.40;0.90;;;;;;;5.65;100.00;98132.19;5124705;27;20058;-87
2023/01/12 00:28:54;;;;;;;1.52;1.00;;;;;;;5.43;100.00;98104.06;5157661;27;20042;-87
2023/01/12 00:31:21;;;;;;;1.65;1.00;;;;;;;5.85;100.00;98162.16;5138943;27;20047;-87
2023/01/12 00:33:48;;;;;;;2.17;1.02;;;;;;;5.54;100.00;98113.81;5138366;27;20463;-87
2023/01/12 00:36:17;;;;;;;1.02;0.93;;;;;;;5.54;100.00;98124.19;5138910;27;20058;-88
2023/01/12 00:38:44;;;;;;;1.85;1.00;;;;;;;5.52;100.00;98123.44;5147431;27;20051;-87
2023/01/12 00:46:43;;;;;;;1.73;0.93;;;;;;;5.61;100.00;98128.13;5147789;27;20051;-87
2023/01/12 00:49:10;;;;;;;0.82;0.80;;;;;;;5.75;100.00;98144.63;5149021;27;20046;-87
2023/01/12 00:51:36;;;;;;;1.60;1.00;;;;;;;5.49;100.00;98113.25;5137647;27;20472;-87
2023/01/12 00:54:06;;;;;;;1.13;0.88;;;;;;;5.54;100.00;98141.53;5131645;28;20057;-87
2023/01/12 00:56:34;;;;;;;1.92;1.00;;;;;;;5.51;100.00;98127.81;5128768;27;20087;-86
2023/01/12 00:59:00;;;;;;;1.55;0.90;;;;;;;5.49;100.00;98127.06;5133867;27;20384;-87
2023/01/12 01:01:27;;;;;;;1.52;0.90;;;;;;;5.41;100.00;98129.25;5135844;27;20054;-87
2023/01/12 01:03:54;;;;;;;1.10;0.90;;;;;;;5.48;100.00;98143.53;5136458;27;20095;-87
2023/01/12 01:06:22;;;;;;;1.65;0.90;;;;;;;5.39;100.00;98138.91;5131383;28;20043;-87
2023/01/12 01:08:49;;;;;;;1.00;0.90;;;;;;;5.63;100.00;98172.13;5152884;27;20069;-87
2023/01/12 01:11:16;;;;;;;1.40;0.90;;;;;;;5.57;100.00;98167.31;5137453;27;20047;-87
2023/01/12 01:13:43;;;;;;;1.00;0.90;;;;;;;5.20;100.00;98131.31;5132730;28;20480;-87
2023/01/12 01:16:13;;;;;;;1.27;0.80;;;;;;;5.08;100.00;98113.88;5131037;28;20059;-87
2023/01/12 01:18:41;;;;;;;0.80;0.80;;;;;;;5.39;100.00;98177.00;5116449;28;20544;-87
2023/01/12 01:21:09;;;;;;;1.52;1.00;;;;;;;4.91;100.00;98110.47;5138909;27;20069;-87
2023/01/12 01:23:38;;;;;;;2.60;1.10;;;;;;;5.23;100.00;98151.91;5154201;27;20453;-86
2023/01/12 01:26:08;;;;;;;2.35;1.00;;;;;;;5.36;100.00;98177.16;5136107;27;20383;-87
2023/01/12 01:28:35;;;;;;;0.80;0.80;;;;;;;4.92;100.00;98103.53;5136212;27;20057;-86
2023/01/12 01:31:03;;;;;;;1.90;0.90;;;;;;;5.06;100.00;98106.16;5154452;27;20057;-87
2023/01/12 01:33:30;;;;;;;1.10;1.00;;;;;;;5.27;100.00;98134.41;5127920;28;20047;-87
2023/01/12 01:35:57;;;;;;;2.30;1.00;;;;;;;5.22;100.00;98123.47;5129447;27;20047;-87
2023/01/12 01:38:24;;;;;;;1.20;0.90;;;;;;;5.49;100.00;98184.16;5084916;27;1247921;-88
2023/01/12 01:40:52;;;;;;;2.05;0.90;;;;;;;5.23;100.00;98131.16;5131746;27;20119;-87
2023/01/12 01:43:22;;;;;;;1.27;0.90;;;;;;;5.08;100.00;98116.47;5129148;27;20479;-87
2023/01/12 01:46:01;;;;;;;0.95;0.85;;;;;;;5.55;100.00;98174.34;5133745;27;20050;-87
2023/01/12 01:48:31;;;;;;;2.95;1.50;;;;;;;5.05;100.00;98109.72;5134106;27;20399;-87
2023/01/12 01:51:03;;;;;;;3.60;1.10;;;;;;;5.42;100.00;98175.06;5153986;27;20079;-88
2023/01/12 01:53:35;;;;;;;1.00;0.90;;;;;;;5.13;100.00;98127.41;5136709;27;20073;-87
2023/01/12 01:56:09;;;;;;;3.50;1.02;;;;;;;5.09;100.00;98141.50;5148063;27;20050;-87
2023/01/12 01:58:45;;;;;;;1.23;0.90;;;;;;;5.49;100.00;98184.16;5120030;27;20058;-87
2023/01/12 02:01:12;;;;;;;1.95;0.90;;;;;;;5.30;100.00;98160.19;5117770;27;20076;-87
2023/01/12 02:03:40;;;;;;;1.35;1.00;;;;;;;5.23;100.00;98153.69;5146720;27;20062;-87
2023/01/12 02:06:07;;;;;;;2.38;0.98;;;;;;;5.24;100.00;98168.31;5124144;27;20471;-87
2023/01/12 02:08:50;;;;;;;3.20;1.20;;;;;;;5.42;100.00;98195.81;5135177;27;20050;-86
2023/01/12 02:17:12;;;;;;;1.92;1.00;;;;;;;5.35;100.00;98220.44;5140851;27;20400;-87
2023/01/12 02:19:59;;;;;;;2.88;1.10;;;;;;;5.26;100.00;98226.16;5143376;27;20043;-87
2023/01/12 02:23:04;;;;;;;3.67;1.20;;;;;;;5.10;100.00;98226.19;5118934;27;20058;-86
2023/01/12 02:25:49;;;;;;;1.80;1.10;;;;;;;4.99;100.00;98231.09;5033956;28;20048;-87
2023/01/12 02:28:28;;;;;;;1.27;0.98;;;;;;;4.75;100.00;98239.28;5129716;27;20050;-86
2023/01/12 02:31:16;;;;;;;1.75;1.00;;;;;;;4.69;100.00;98234.44;5154099;27;20046;-86
2023/01/12 02:34:02;;;;;;;1.60;1.00;;;;;;;4.50;100.00;98234.59;5131043;27;20055;-87
2023/01/12 02:36:40;;;;;;;1.38;1.00;;;;;;;4.32;100.00;98234.63;5132726;27;20108;-87
2023/01/12 02:39:13;;;;;;;1.80;1.00;;;;;;;4.11;100.00;98228.81;5132849;27;20055;-86
2023/01/12 02:44:57;;;;;;;1.95;1.00;;;;;;;4.10;100.00;98226.28;5148101;27;20047;-87
2023/01/12 02:47:36;;;;;;;1.13;0.95;;;;;;;4.12;100.00;98225.28;5115744;27;20420;-86
2023/01/12 02:50:08;;;;;;;1.55;1.00;;;;;;;3.66;100.00;98181.00;5127721;27;20051;-87
2023/01/12 02:52:35;;;;;;;2.00;0.90;;;;;;;3.79;100.00;98217.50;5132096;27;20054;-87
2023/01/12 02:55:03;;;;;;;1.77;1.00;;;;;;;3.65;100.00;98175.91;5122610;27;20050;-87
2023/01/12 02:57:33;;;;;;;1.55;1.23;;;;;;;4.07;100.00;98254.91;5139739;27;20047;-87
2023/01/12 03:00:02;;;;;;;1.00;0.90;;;;;;;3.84;100.00;98225.00;5136339;27;20047;-88
2023/01/12 03:02:29;;;;;;;1.10;0.90;;;;;;;3.73;100.00;98231.56;5127978;27;20043;-88
2023/01/12 03:04:56;;;;;;;1.52;0.95;;;;;;;3.43;100.00;98195.09;5127941;27;20042;-87
2023/01/12 03:07:32;;;;;;;2.33;1.10;;;;;;;3.83;100.00;98263.00;5151166;27;20063;-87
2023/01/12 03:10:14;;;;;;;1.58;1.00;;;;;;;3.52;100.00;98248.13;5154057;27;20423;-87
2023/01/12 03:12:43;;;;;;;2.15;1.13;;;;;;;3.56;100.00;98265.19;5131097;27;20111;-87
2023/01/12 03:15:13;;;;;;;3.60;1.00;;;;;;;3.29;100.00;98244.06;5136130;27;20039;-87
2023/01/12 03:17:44;;;;;;;1.42;0.90;;;;;;;3.40;100.00;98257.34;5131587;27;20047;-87
2023/01/12 03:20:22;;;;;;;1.30;1.00;;;;;;;3.31;100.00;98258.63;5127785;27;20046;-88
2023/01/12 03:22:56;;;;;;;1.30;0.95;;;;;;;3.37;100.00;98268.66;5121737;28;20443;-87
2023/01/12 03:25:25;;;;;;;1.23;0.98;;;;;;;2.85;100.00;98202.16;5144636;27;20042;-87
2023/01/12 03:27:56;;;;;;;1.73;1.05;;;;;;;3.25;100.00;98279.59;5150034;27;20058;-87
2023/01/12 03:30:27;;;;;;;1.67;1.00;;;;;;;3.08;100.00;98257.13;5137056;27;20054;-87
2023/01/12 03:32:54;;;;;;;1.20;1.00;;;;;;;2.91;100.00;98220.88;5134186;27;20043;-87
2023/01/12 03:35:26;;;;;;;3.17;1.15;;;;;;;3.22;100.00;98285.75;5136466;27;20046;-87
2023/01/12 03:38:00;;;;;;;2.88;1.17;;;;;;;3.20;100.00;98292.72;5121599;27;20051;-87
2023/01/12 03:40:34;;;;;;;2.35;1.00;;;;;;;2.82;100.00;98233.31;5127509;28;20047;-88
2023/01/12 03:43:33;;;;;;;1.58;1.00;;;;;;;3.16;100.00;98293.78;5124615;27;20059;-87
2023/01/12 03:46:43;;;;;;;2.53;1.02;;;;;;;3.04;100.00;98291.75;5136602;27;20169;-87
2023/01/12 03:49:26;;;;;;;3.28;1.30;;;;;;;2.81;100.00;98260.03;5146816;27;20130;-88
2023/01/12 03:51:56;;;;;;;1.85;1.30;;;;;;;3.02;100.00;98296.16;5131467;27;20043;-87
2023/01/12 03:54:26;;;;;;;2.83;1.08;;;;;;;2.84;100.00;98266.84;5137428;27;20050;-88
2023/01/12 03:56:53;;;;;;;4.53;0.95;;;;;;;2.83;100.00;98288.41;5136410;27;20051;-88
2023/01/12 03:59:21;;;;;;;2.08;1.20;;;;;;;2.87;100.00;98268.44;5132809;28;20051;-87
2023/01/12 04:01:48;;;;;;;1.63;1.05;;;;;;;3.14;100.00;98321.47;5147363;27;20098;-88
2023/01/12 04:04:15;;;;;;;1.98;1.20;;;;;;;2.94;100.00;98299.13;5150134;27;20082;-88
2023/01/12 04:06:42;;;;;;;2.10;1.15;;;;;;;2.99;100.00;98322.16;5117566;28;20047;-89
2023/01/12 04:09:08;;;;;;;2.45;1.17;;;;;;;2.51;100.00;98254.50;5120516;27;20047;-88
2023/01/12 04:14:20;;;;;;;2.83;1.17;;;;;;;2.53;100.00;98268.19;5153644;27;20110;-88
2023/01/12 04:16:47;;;;;;;1.80;1.10;;;;;;;2.71;100.00;98289.81;5126301;28;20453;-88
2023/01/12 04:19:14;;;;;;;1.70;1.00;;;;;;;2.71;100.00;98274.31;5118815;27;20061;-89
2023/01/12 04:24:26;;;;;;;3.60;1.10;;;;;;;2.85;100.00;98256.44;5159263;27;20055;-87
2023/01/12 04:26:53;;;;;;;4.00;1.42;;;;;;;3.16;100.00;98291.19;5140629;27;20050;-88
2023/01/12 04:29:19;;;;;;;5.88;1.15;;;;;;;3.11;100.00;98280.22;5155119;27;20050;-89
2023/01/12 04:31:46;;;;;;;3.67;0.95;;;;;;;3.19;100.00;98266.97;5153129;27;20046;-88
2023/01/12 04:34:13;;;;;;;2.22;1.02;;;;;;;3.39;100.00;98289.28;5142608;27;20673;-88
2023/01/12 04:36:41;;;;;;;2.42;1.00;;;;;;;3.40;100.00;98276.28;5147284;27;20053;-88
2023/01/12 04:39:08;;;;;;;11.05;1.63;;;;;;;3.44;100.00;98292.50;5128215;27;20054;-88
2023/01/12 04:41:35;;;;;;;3.55;1.20;;;;;;;3.58;100.00;98297.84;5163425;27;20057;-88
2023/01/12 04:44:02;;;;;;;2.42;1.15;;;;;;;3.50;100.00;98276.66;5151729;27;20069;-88
2023/01/12 04:46:28;;;;;;;2.05;1.10;;;;;;;3.83;100.00;98325.13;5119674;27;20047;-88
2023/01/12 04:48:55;;;;;;;1.50;1.05;;;;;;;3.44;100.00;98256.28;5137351;27;20047;-88
2023/01/12 04:51:22;;;;;;;2.17;1.10;;;;;;;3.20;100.00;98263.44;5126519;27;20039;-88
2023/01/12 04:53:50;;;;;;;2.17;1.10;;;;;;;3.15;100.00;98257.66;5155905;27;20057;-88
2023/01/12 04:56:17;;;;;;;2.22;1.02;;;;;;;2.88;100.00;98270.94;5140384;27;20047;-88
2023/01/12 04:58:44;;;;;;;2.40;1.10;;;;;;;2.82;100.00;98274.66;5140146;27;20049;-89
2023/01/12 05:01:16;;;;;;;1.48;1.00;;;;;;;3.18;100.00;98343.69;5140774;27;20055;-88
2023/01/12 05:03:44;;;;;;;2.08;1.10;;;;;;;3.02;100.00;98319.44;5124956;27;20051;-88
2023/01/12 05:06:12;;;;;;;2.05;1.10;;;;;;;2.93;100.00;98315.53;5158993;27;20047;-88
2023/01/12 05:11:27;;;;;;;2.83;1.00;;;;;;;2.91;100.00;98334.59;5158225;27;20050;-89
2023/01/12 05:13:55;;;;;;;3.38;1.20;;;;;;;2.60;100.00;98299.75;5139731;27;20050;-88
2023/01/12 05:16:22;;;;;;;2.33;1.10;;;;;;;2.98;100.00;98359.28;5132818;27;20043;-88
2023/01/12 05:18:51;;;;;;;2.28;1.05;;;;;;;2.65;100.00;98315.91;5133372;27;20451;-88
2023/01/12 05:21:20;;;;;;;2.60;1.20;;;;;;;2.40;100.00;98300.66;5136351;27;20112;-88
2023/01/12 05:23:49;;;;;;;2.50;1.08;;;;;;;2.40;100.00;98301.47;5138361;27;20055;-88
2023/01/12 05:26:16;;;;;;;4.35;1.10;;;;;;;2.78;100.00;98360.13;5125523;27;20054;-88
2023/01/12 05:28:43;;;;;;;4.63;1.30;;;;;;;2.90;100.00;98382.03;5139948;27;20136;-88
2023/01/12 05:31:11;;;;;;;4.78;1.40;;;;;;;2.64;100.00;98304.75;5136982;27;20051;-88
2023/01/12 05:33:41;;;;;;;1.60;1.00;;;;;;;3.14;100.00;98364.59;5137566;27;20058;-88
2023/01/12 05:36:11;;;;;;;2.30;1.23;;;;;;;3.20;100.00;98341.84;5131327;27;20047;-88
2023/01/12 05:38:38;;;;;;;3.15;1.10;;;;;;;3.11;100.00;98324.19;5138786;27;20400;-87
2023/01/12 05:41:08;;;;;;;4.18;1.20;;;;;;;3.28;100.00;98361.38;5140577;27;20053;-88
2023/01/12 05:43:50;;;;;;;3.22;1.13;;;;;;;3.18;100.00;98322.16;5140480;27;20105;-88
2023/01/12 05:46:25;;;;;;;1.77;1.10;;;;;;;3.55;100.00;98369.59;5137033;27;20095;-89
2023/01/12 05:48:53;;;;;;;2.47;1.00;;;;;;;3.19;100.00;98316.91;5134215;27;20054;-88
2023/01/12 05:51:21;;;;;;;1.70;1.10;;;;;;;3.35;100.00;98337.75;5141353;27;20050;-88
2023/01/12 05:53:48;;;;;;;3.10;1.08;;;;;;;3.49;100.00;98356.94;5129915;27;20059;-88
2023/01/12 05:56:24;;;;;;;2.72;1.10;;;;;;;3.64;100.00;98371.75;5129199;27;20046;-88
2023/01/12 05:58:57;;;;;;;3.67;1.10;;;;;;;3.50;100.00;98348.28;5141511;27;20051;-89
2023/01/12 06:01:25;;;;;;;1.40;1.00;;;;;;;3.27;100.00;98324.31;5123154;27;20404;-88
2023/01/12 06:03:54;;;;;;;3.00;1.05;;;;;;;3.39;100.00;98341.03;5136031;27;20074;-88
2023/01/12 06:06:22;;;;;;;3.03;1.00;;;;;;;3.48;100.00;98379.41;5133943;27;20043;-88
2023/01/12 06:08:51;;;;;;;2.25;1.10;;;;;;;3.05;100.00;98316.72;5138889;27;20046;-88
2023/01/12 06:14:04;;;;;;;3.47;1.30;;;;;;;3.41;100.00;98350.38;5152697;27;20055;-87
2023/01/12 06:16:31;;;;;;;5.78;1.33;;;;;;;2.95;100.00;98310.28;5144759;27;20042;-89
2023/01/12 06:18:58;;;;;;;2.42;1.30;;;;;;;3.26;100.00;98382.13;5142393;27;20057;-88
2023/01/12 06:21:25;;;;;;;2.88;1.10;;;;;;;3.19;100.00;98373.81;5141517;27;20055;-89
2023/01/12 06:23:51;;;;;;;2.55;1.10;;;;;;;2.82;100.00;98338.44;5140672;27;20054;-89
2023/01/12 06:26:18;;;;;;;3.20;1.15;;;;;;;2.81;100.00;98355.66;5158637;27;20042;-88
2023/01/12 06:28:45;;;;;;;4.45;1.25;;;;;;;2.73;100.00;98351.75;5142519;27;20053;-88
2023/01/12 06:31:13;;;;;;;1.98;1.20;;;;;;;2.95;100.00;98393.00;5140662;27;20180;-89
2023/01/12 06:33:40;;;;;;;4.10;1.17;;;;;;;2.75;100.00;98352.53;5143579;27;20446;-88
2023/01/12 06:36:08;;;;;;;2.63;1.10;;;;;;;2.92;100.00;98344.88;5142505;27;20203;-88
2023/01/12 06:38:38;;;;;;;2.05;1.10;;;;;;;3.28;100.00;98387.25;5140316;27;20059;-87
2023/01/12 06:42:27;;;;;;;4.68;1.20;;;;;;;3.04;100.00;98338.31;5158180;27;20445;-88
2023/01/12 06:43:56;;;;;;;1.13;1.00;;;;;;;3.08;100.00;98352.78;5158306;27;20385;-89
2023/01/12 06:46:25;;;;;;;1.95;1.10;;;;;;;3.27;100.00;98382.97;5140697;27;20042;-88
2023/01/12 06:48:55;;;;;;;2.28;1.27;;;;;;;3.19;100.00;98376.41;5125435;27;20063;-88
2023/01/12 06:51:23;;;;;;;2.22;1.05;;;;;;;3.23;100.00;98397.78;5136659;27;20121;-89
2023/01/12 06:53:50;;;;;;;1.40;1.00;;;;;;;2.89;100.00;98347.59;5135622;27;20400;-87
2023/01/12 06:56:17;;;;;;;2.55;1.10;;;;;;;2.85;100.00;98354.66;5128150;27;20043;-89
2023/01/12 06:58:44;;;;;;;2.38;1.10;;;;;;;2.68;100.00;98358.88;5143259;27;20483;-89
2023/01/12 07:01:12;;;;;;;2.53;1.08;;;;;;;2.79;100.00;98372.16;5132137;27;20047;-90
2023/01/12 07:03:39;;;;;;;3.45;1.65;;;;;;;2.66;100.00;98353.78;5141802;27;20054;-88
2023/01/12 07:06:06;;;;;;;5.22;1.10;;;;;;;2.68;100.00;98367.47;5139665;27;20039;-89
2023/01/12 07:08:34;;;;;;;3.67;1.20;;;;;;;2.40;100.00;98329.88;5142460;27;20480;-89
2023/01/12 07:11:11;;;;;;;2.40;1.10;;;;;;;2.36;100.00;98312.03;5138460;27;20069;-88
2023/01/12 07:13:38;;;;;;;1.67;0.98;;;;;;;2.84;100.00;98393.47;5137849;27;20426;-89
2023/01/12 07:16:05;;;;;;;1.80;1.05;;;;;;;2.68;100.00;98364.88;5136119;27;20046;-90
2023/01/12 07:18:32;;;;;;;3.63;1.20;;;;;;;2.64;100.00;98365.91;5124815;27;20047;-86
2023/01/12 07:21:03;;;;;;;1.77;1.10;;;;;;;2.46;100.00;98337.38;5136056;27;20057;-88
2023/01/12 07:23:30;;;;;;;3.80;1.10;;;;;;;2.55;100.00;98355.97;5133719;27;20061;-88
2023/01/12 07:25:57;;;;;;;1.10;1.00;;;;;;;2.44;100.00;98359.88;5140284;27;20051;-88
2023/01/12 07:28:24;;;;;;;1.00;0.88;;;;;;;2.53;100.00;98362.94;5155793;27;20047;-90
2023/01/12 07:30:51;;;;;;;2.20;1.10;;;;;;;2.39;100.00;98337.69;5140817;27;20057;-88
2023/01/12 07:33:17;;;;;;;1.77;1.00;;;;;;;2.55;100.00;98372.31;5138201;27;20553;-87
2023/01/12 07:35:44;;;;;;;4.60;1.15;;;;;;;2.18;100.00;98306.72;5136521;27;20393;-86
2023/01/12 07:38:11;;;;;;;1.75;1.00;;;;;;;1.90;100.00;98287.22;5136844;28;20412;-88
2023/01/12 07:40:38;;;;;;;2.10;1.10;;;;;;;2.53;100.00;98402.53;5143045;27;20054;-88
2023/01/12 07:43:07;;;;;;;3.47;1.20;;;;;;;2.18;100.00;98362.66;5140629;27;20399;-89
2023/01/12 07:45:34;;;;;;;2.08;1.10;;;;;;;2.08;100.00;98380.28;5159455;27;20055;-88
2023/01/12 07:48:02;;;;;;;2.28;1.25;;;;;;;2.05;100.00;98377.81;5140156;27;20047;-87
2023/01/12 07:50:28;;;;;;;3.83;1.30;;;;;;;1.93;100.00;98345.63;5140028;27;20050;-88
2023/01/12 07:53:00;;;;;;;7.65;1.45;;;;;;;2.42;100.00;98412.47;5139925;27;20061;-88
2023/01/12 07:55:29;;;;;;;2.38;1.10;;;;;;;2.45;100.00;98417.53;5140078;27;20053;-87
2023/01/12 07:58:06;;;;;;;3.65;1.20;;;;;;;2.48;100.00;98414.81;5142880;27;20045;-88
2023/01/12 08:00:33;;;;;;;2.22;1.10;;;;;;;2.38;100.00;98409.19;5134022;27;20042;-88
2023/01/12 08:03:06;;;;;;;2.20;1.02;;;;;;;2.28;100.00;98411.31;5143485;27;21472;-88
2023/01/12 08:05:34;;;;;;;2.50;1.20;;;;;;;2.42;100.00;98413.31;5141783;27;20050;-88
2023/01/12 08:08:01;;;;;;;2.45;1.67;;;;;;;2.10;100.00;98360.41;5138620;27;20054;-88
2023/01/12 08:10:29;;;;;;;3.83;1.30;;;;;;;2.47;100.00;98402.78;5141353;27;20074;-88
2023/01/12 08:12:56;;;;;;;1.75;1.10;;;;;;;2.48;100.00;98396.72;5137822;27;20043;-88
2023/01/12 08:15:26;;;;;;;3.65;1.17;;;;;;;2.09;100.00;98336.34;5136088;27;20074;-88
2023/01/12 08:18:01;;;;;;;1.83;1.17;;;;;;;2.22;100.00;98367.66;5143973;27;20058;-87
2023/01/12 08:20:33;;;;;;;3.58;1.30;;;;;;;2.53;100.00;98402.53;5141683;27;20480;-89
2023/01/12 08:23:14;;;;;;;2.85;1.40;;;;;;;2.53;100.00;98410.25;5144086;27;20089;-89
2023/01/12 08:25:45;;;;;;;2.92;1.30;;;;;;;2.47;100.00;98419.13;5132070;27;20054;-90
2023/01/12 08:28:18;;;;;;;2.30;1.33;;;;;;;2.07;100.00;98355.38;5136548;27;20043;-89
2023/01/12 08:30:47;;;;;;;2.53;1.33;;;;;;;2.11;100.00;98375.00;5144441;27;20110;-89
2023/01/12 08:33:15;;;;;;;3.20;1.30;;;;;;;1.75;100.00;98308.47;5144346;27;20042;-88
2023/01/12 08:35:45;;;;;;;2.67;1.30;;;;;;;2.23;100.00;98397.75;5156091;27;20051;-89
2023/01/12 08:38:12;;;;;;;2.70;1.30;;;;;;;1.85;100.00;98348.50;5127253;27;20047;-89
2023/01/12 08:46:11;;;;;;;7.30;2.80;;;;;;;2.03;100.00;98375.31;5157996;27;20063;-91
2023/01/12 08:48:47;;;;;;;6.10;2.47;;;;;;;2.06;100.00;98361.44;5115762;27;20077;-89
2023/01/12 08:51:28;;;;;;;4.47;2.05;;;;;;;1.96;100.00;98335.16;5140904;27;20046;-88
2023/01/12 08:53:55;;;;;;;4.70;1.95;;;;;;;2.11;100.00;98380.19;5163559;27;20046;-88
2023/01/12 08:56:22;;;;;;;4.80;1.90;;;;;;;2.11;100.00;98375.00;5160279;27;20389;-88
2023/01/12 08:58:49;;;;;;;5.43;1.98;;;;;;;1.78;100.00;98323.03;5133243;27;20058;-89
2023/01/12 09:01:18;;;;;;;3.63;1.80;;;;;;;2.25;100.00;98338.31;5142216;27;20043;-89
2023/01/12 09:03:47;;;;;;;6.68;2.33;;;;;;;2.45;100.00;98315.03;5141240;27;20047;-89
2023/01/12 09:06:18;;;;;;;5.90;2.13;;;;;;;3.20;100.00;98352.19;5149695;27;20039;-88
2023/01/12 09:08:45;;;;;;;6.93;2.42;;;;;;;3.48;100.00;98350.09;5151752;27;20488;-89
2023/01/12 09:11:14;;;;;;;8.25;2.58;;;;;;;3.30;100.00;98287.97;5154356;27;20464;-89
2023/01/12 09:13:41;;;;;;;6.70;2.80;;;;;;;3.61;100.00;98338.25;5144202;27;20053;-89
2023/01/12 09:16:11;;;;;;;10.05;3.33;;;;;;;2.63;100.00;98273.81;5144061;27;20046;-89
2023/01/12 09:18:40;;;;;;;9.10;2.92;;;;;;;2.82;100.00;98333.25;5156530;27;20049;-88
2023/01/12 09:21:13;;;;;;;7.57;3.00;;;;;;;2.68;100.00;98338.22;5140868;27;20042;-89
2023/01/12 09:23:41;;;;;;;;;;;;;;;2.65;100.00;98337.41;5159664;27;20047;-88
2023/01/12 09:26:14;;;;;;;8.55;2.88;;;;;;;2.39;100.00;98314.44;5143131;27;19955;-89
2023/01/12 09:28:43;;;;;;;10.07;2.85;;;;;;;2.49;100.00;98327.81;5135799;27;20042;-88
2023/01/12 09:31:13;;;;;;;8.50;2.95;;;;;;;2.55;100.00;98325.81;5140203;27;20050;-88
2023/01/12 09:33:40;;;;;;;16.08;8.07;;;;;;;2.48;100.00;98296.00;5139246;27;20062;-88
2023/01/12 09:36:27;;;;;;;13.38;5.50;;;;;;;2.44;100.00;98276.34;5140111;27;20054;-88
2023/01/12 09:38:55;;;;;;;12.52;5.00;;;;;;;2.54;100.00;98302.63;5139164;27;20045;-88
2023/01/12 09:47:20;;;;;;;15.20;5.72;;;;;;;2.31;100.00;98257.16;5143556;27;20053;-88
2023/01/12 09:49:54;;;;;;;11.13;4.85;;;;;;;2.17;100.00;98235.34;5133213;27;20046;-86
2023/01/12 09:52:45;;;;;;;9.98;4.18;;;;;;;2.58;100.00;98273.16;5135541;27;20043;-87
2023/01/12 09:55:20;;;;;;;10.20;3.92;;;;;;;2.54;100.00;98264.72;5139377;27;20051;-87
2023/01/12 09:58:17;;;;;;;9.65;4.40;;;;;;;2.62;100.00;98259.19;5140434;27;20476;-88
2023/01/12 10:00:49;;;;;;;8.40;2.88;;;;;;;2.18;100.00;98158.72;5139669;27;20049;-87
2023/01/12 10:03:40;;;;;;;9.55;2.97;;;;;;;2.68;100.00;98222.75;5157793;27;20138;-87
2023/01/12 10:06:13;;;;;;;8.35;2.30;;;;;;;2.81;100.00;98236.78;5139553;27;20046;-87
2023/01/12 10:08:44;;;;;;;6.32;1.70;;;;;;;2.79;100.00;98209.34;5138521;27;20054;-87
2023/01/12 10:11:41;;;;;;;5.85;1.85;;;;;;;2.97;100.00;98202.47;5130372;27;20065;-87
2023/01/12 10:14:18;;;;;;;6.35;2.08;;;;;;;3.20;100.00;98241.00;5133161;27;20044;-87
2023/01/12 10:16:47;;;;;;;5.00;1.60;;;;;;;3.30;100.00;98231.06;5149379;27;20106;-87
2023/01/12 10:19:29;;;;;;;3.33;1.30;;;;;;;3.72;100.00;98213.50;5138824;27;20463;-87
2023/01/12 10:21:56;;;;;;;9.50;1.65;;;;;;;3.56;100.00;98172.91;5149112;27;20039;-87
2023/01/12 10:24:24;;;;;;;4.07;1.20;;;;;;;3.52;100.00;98145.47;5139311;27;20038;-87
2023/01/12 10:27:13;;;;;;;4.47;1.33;;;;;;;3.79;100.00;98174.31;5156661;27;20038;-87
2023/01/12 10:29:40;;;;;;;3.42;1.15;;;;;;;3.78;100.00;98158.88;5146830;27;20447;-88
2023/01/12 10:32:11;;;;;;;7.25;1.65;;;;;;;4.14;100.00;98176.00;5138364;27;20453;-87
2023/01/12 10:34:50;;;;;;;3.80;1.55;;;;;;;4.51;100.00;98198.19;5126866;27;20095;-88
2023/01/12 10:37:17;;;;;;;5.07;1.45;;;;;;;4.22;100.00;98158.31;5135814;27;20047;-87
2023/01/12 10:39:44;;;;;;;8.13;1.45;;;;;;;4.27;100.00;98135.59;5137390;27;20050;-88
2023/01/12 10:43:17;;;;;;;4.70;1.38;;;;;;;4.59;100.00;98184.03;5130510;27;20054;-88
2023/01/12 10:45:22;;;;;;;8.38;1.40;;;;;;;4.71;100.00;98184.19;5159133;27;20039;-89
2023/01/12 10:47:56;;;;;;;3.25;1.10;;;;;;;4.73;100.00;98150.41;5138949;27;20043;-89
2023/01/12 10:50:27;;;;;;;3.28;1.23;;;;;;;4.93;100.00;98170.88;5131830;27;20066;-89
2023/01/12 10:53:02;;;;;;;6.38;1.30;;;;;;;4.71;100.00;98132.34;5124082;27;20400;-89
2023/01/12 10:55:38;;;;;;;6.00;1.20;;;;;;;4.61;100.00;98107.03;5124057;27;20492;-89
2023/01/12 10:58:19;;;;;;;5.03;1.52;;;;;;;4.93;100.00;98165.69;5138134;27;20049;-89
2023/01/12 11:00:48;;;;;;;6.43;1.20;;;;;;;4.84;100.00;98136.84;5122053;27;20055;-89
2023/01/12 11:03:42;;;;;;;8.10;2.13;;;;;;;5.10;100.00;98151.78;5136519;27;20050;-89
2023/01/12 11:06:29;;;;;;;3.38;1.20;;;;;;;4.79;100.00;98103.41;5134442;27;20062;-89
2023/01/12 11:08:56;;;;;;;6.25;1.30;;;;;;;5.06;100.00;98126.91;5157034;27;20065;-89
2023/01/12 11:11:23;;;;;;;5.85;1.60;;;;;;;5.15;100.00;98151.50;5137769;27;20476;-88
2023/01/12 11:13:59;;;;;;;8.95;2.40;;;;;;;4.85;100.00;98095.28;5137837;27;20111;-89
2023/01/12 11:16:46;;;;;;;4.50;1.45;;;;;;;5.13;100.00;98096.28;5155675;27;20049;-88
2023/01/12 11:19:22;;;;;;;2.28;1.20;;;;;;;5.31;100.00;98089.19;5123627;27;20052;-89
2023/01/12 11:22:06;;;;;;;3.67;1.30;;;;;;;5.35;100.00;98098.50;5137231;27;20051;-89
2023/01/12 11:24:51;;;;;;;5.43;1.50;;;;;;;5.22;100.00;98058.59;5104698;28;20096;-89
2023/01/12 11:27:23;;;;;;;5.15;1.40;;;;;;;5.50;100.00;98094.16;5123902;27;20081;-89
2023/01/12 11:30:06;;;;;;;5.90;1.80;;;;;;;5.36;100.00;98063.81;5138270;27;20753;-89
2023/01/12 11:33:07;;;;;;;6.20;1.70;;;;;;;5.43;100.00;98083.28;5139460;27;20054;-89
2023/01/12 11:35:48;;;;;;;4.00;1.48;;;;;;;5.37;100.00;98038.72;5122720;27;20054;-89
2023/01/12 11:38:19;;;;;;;5.53;1.55;;;;;;;5.49;100.00;98040.59;5142184;27;20034;-89
2023/01/12 11:40:47;;;;;;;4.75;1.30;;;;;;;5.20;100.00;97993.00;5143079;27;20050;-88
2023/01/12 11:44:05;;;;;;;5.13;1.73;;;;;;;5.61;100.00;98029.47;5135461;27;20388;-88
2023/01/12 11:46:35;;;;;;;4.70;1.73;;;;;;;5.64;100.00;98011.09;5074348;27;20055;-87
2023/01/12 11:49:13;;;;;;;4.47;1.63;;;;;;;5.61;100.00;97985.34;5123554;27;20047;-87
2023/01/12 11:51:41;;;;;;;5.30;1.38;;;;;;;5.54;100.00;97965.84;5133933;27;20043;-89
2023/01/12 11:54:15;;;;;;;5.95;1.33;;;;;;;5.48;100.00;97958.47;5131322;27;20050;-89
2023/01/12 11:56:57;;;;;;;4.63;1.60;;;;;;;5.49;100.00;97967.94;5132445;27;20055;-88
2023/01/12 12:00:00;;;;;;;4.13;1.20;;;;;;;5.60;100.00;97956.88;5160917;27;20042;-88
2023/01/12 12:02:37;;;;;;;5.68;1.65;;;;;;;5.64;100.00;97953.16;5132803;27;20427;-89
2023/01/12 12:05:47;;;;;;;3.72;1.40;;;;;;;5.83;100.00;97963.25;5142644;27;20107;-89
2023/01/12 12:08:25;;;;;;;7.35;1.95;;;;;;;5.85;100.00;97941.44;5116656;27;20046;-89
2023/01/12 12:11:07;;;;;;;7.65;2.47;;;;;;;5.72;100.00;97927.56;5142288;27;20518;-88
2023/01/12 12:14:03;;;;;;;9.95;2.05;;;;;;;5.92;100.00;97926.31;5141005;27;20047;-86
2023/01/12 12:16:44;;;;;;;2.78;1.25;;;;;;;5.90;100.00;97903.03;5056789;27;20056;-86
2023/01/12 12:19:32;;;;;;;4.72;1.92;;;;;;;5.73;100.00;97872.09;5126771;27;20062;-86
2023/01/12 12:21:59;;;;;;;7.93;1.92;;;;;;;6.05;100.00;97893.44;5141850;27;20046;-86
2023/01/12 12:24:29;;;;;;;6.57;2.67;;;;;;;6.10;100.00;97879.34;5142196;27;20073;-85
2023/01/12 12:27:24;;;;;;;7.13;2.30;;;;;;;6.23;100.00;97881.03;5141017;27;20043;-86
2023/01/12 12:30:15;;;;;;;9.50;2.88;;;;;;;6.24;100.00;97872.28;5129471;27;20415;-86
2023/01/12 12:33:07;;;;;;;16.67;2.92;;;;;;;6.20;100.00;97849.22;5132250;27;20043;-86
2023/01/12 12:35:45;;;;;;;11.75;3.20;;;;;;;6.33;100.00;97844.06;5139062;27;20403;-86